sensor_id;sensor_type;location;lat;lon;timestamp;P1;durP1;ratioP1;P2;durP2;ratioP2
37785;SDS011;23625;48.784;9.336;2023-07-22T00:00:46;9.10;;;2.70;;
37785;SDS011;23625;48.784;9.336;2023-07-22T00:03:11;3.50;;;2.40;;
37785;SDS011;23625;48.784;9.336;2023-07-22T00:05:37;7.10;;;2.88;;
37785;SDS011;23625;48.784;9.336;2023-07-22T00:08:04;3.78;;;2.47;;
37785;SDS011;23625;48.784;9.336;2023-07-22T00:10:30;4.28;;;2.63;;
37785;SDS011;23625;48.784;9.336;2023-07-22T00:12:55;7.63;;;3.00;;
37785;SDS011;23625;48.784;9.336;2023-07-22T00:15:21;8.65;;;3.40;;
37785;SDS011;23625;48.784;9.336;2023-07-22T00:17:48;4.60;;;2.50;;
37785;SDS011;23625;48.784;9.336;2023-07-22T00:20:15;6.85;;;3.15;;
37785;SDS011;23625;48.784;9.336;2023-07-22T00:22:41;6.00;;;3.00;;
37785;SDS011;23625;48.784;9.336;2023-07-22T00:25:08;5.30;;;2.83;;
37785;SDS011;23625;48.784;9.336;2023-07-22T00:27:36;6.05;;;2.58;;
37785;SDS011;23625;48.784;9.336;2023-07-22T00:30:03;4.43;;;2.78;;
37785;SDS011;23625;48.784;9.336;2023-07-22T00:32:30;3.90;;;2.33;;
37785;SDS011;23625;48.784;9.336;2023-07-22T00:34:56;10.88;;;3.13;;
37785;SDS011;23625;48.784;9.336;2023-07-22T00:37:22;4.63;;;3.10;;
37785;SDS011;23625;48.784;9.336;2023-07-22T00:39:47;7.43;;;2.90;;
37785;SDS011;23625;48.784;9.336;2023-07-22T00:42:13;4.85;;;2.72;;
37785;SDS011;23625;48.784;9.336;2023-07-22T00:44:38;5.00;;;2.60;;
37785;SDS011;23625;48.784;9.336;2023-07-22T00:47:04;10.38;;;3.33;;
37785;SDS011;23625;48.784;9.336;2023-07-22T00:49:30;7.22;;;3.35;;
37785;SDS011;23625;48.784;9.336;2023-07-22T00:51:58;6.13;;;3.05;;
37785;SDS011;23625;48.784;9.336;2023-07-22T00:54:27;5.30;;;2.80;;
37785;SDS011;23625;48.784;9.336;2023-07-22T00:56:54;3.78;;;2.80;;
37785;SDS011;23625;48.784;9.336;2023-07-22T00:59:21;5.28;;;2.67;;
37785;SDS011;23625;48.784;9.336;2023-07-22T01:01:47;5.25;;;3.28;;
37785;SDS011;23625;48.784;9.336;2023-07-22T01:04:13;6.22;;;3.58;;
37785;SDS011;23625;48.784;9.336;2023-07-22T01:06:41;7.93;;;3.00;;
37785;SDS011;23625;48.784;9.336;2023-07-22T01:09:09;6.35;;;2.95;;
37785;SDS011;23625;48.784;9.336;2023-07-22T01:11:34;5.15;;;2.80;;
37785;SDS011;23625;48.784;9.336;2023-07-22T01:14:00;5.20;;;3.15;;
37785;SDS011;23625;48.784;9.336;2023-07-22T01:16:27;5.18;;;3.17;;
37785;SDS011;23625;48.784;9.336;2023-07-22T01:18:53;7.68;;;3.72;;
37785;SDS011;23625;48.784;9.336;2023-07-22T01:21:20;8.50;;;3.38;;
37785;SDS011;23625;48.784;9.336;2023-07-22T01:23:48;6.20;;;3.70;;
37785;SDS011;23625;48.784;9.336;2023-07-22T01:26:13;8.43;;;3.10;;
37785;SDS011;23625;48.784;9.336;2023-07-22T01:28:39;5.53;;;3.20;;
37785;SDS011;23625;48.784;9.336;2023-07-22T01:31:05;5.25;;;3.05;;
37785;SDS011;23625;48.784;9.336;2023-07-22T01:33:31;6.00;;;2.65;;
37785;SDS011;23625;48.784;9.336;2023-07-22T01:35:57;6.75;;;3.17;;
37785;SDS011;23625;48.784;9.336;2023-07-22T01:38:23;8.68;;;3.08;;
37785;SDS011;23625;48.784;9.336;2023-07-22T01:40:48;3.92;;;2.65;;
37785;SDS011;23625;48.784;9.336;2023-07-22T01:43:14;10.38;;;3.03;;
37785;SDS011;23625;48.784;9.336;2023-07-22T01:45:39;5.38;;;2.65;;
37785;SDS011;23625;48.784;9.336;2023-07-22T01:48:05;6.03;;;3.17;;
37785;SDS011;23625;48.784;9.336;2023-07-22T01:50:31;7.57;;;3.50;;
37785;SDS011;23625;48.784;9.336;2023-07-22T01:52:57;6.60;;;2.97;;
37785;SDS011;23625;48.784;9.336;2023-07-22T01:55:22;5.85;;;3.30;;
37785;SDS011;23625;48.784;9.336;2023-07-22T01:57:48;5.63;;;3.22;;
37785;SDS011;23625;48.784;9.336;2023-07-22T02:00:14;3.75;;;2.90;;
37785;SDS011;23625;48.784;9.336;2023-07-22T02:02:40;5.05;;;2.90;;
37785;SDS011;23625;48.784;9.336;2023-07-22T02:05:07;6.85;;;3.05;;
37785;SDS011;23625;48.784;9.336;2023-07-22T02:07:34;5.20;;;3.22;;
37785;SDS011;23625;48.784;9.336;2023-07-22T02:10:00;4.97;;;2.72;;
37785;SDS011;23625;48.784;9.336;2023-07-22T02:12:25;4.78;;;2.95;;
37785;SDS011;23625;48.784;9.336;2023-07-22T02:14:51;6.18;;;3.45;;
37785;SDS011;23625;48.784;9.336;2023-07-22T02:17:17;6.57;;;2.60;;
37785;SDS011;23625;48.784;9.336;2023-07-22T02:19:42;5.80;;;2.90;;
37785;SDS011;23625;48.784;9.336;2023-07-22T02:22:08;5.55;;;3.05;;
37785;SDS011;23625;48.784;9.336;2023-07-22T02:24:34;3.95;;;2.75;;
37785;SDS011;23625;48.784;9.336;2023-07-22T02:27:00;4.05;;;2.78;;
37785;SDS011;23625;48.784;9.336;2023-07-22T02:29:25;11.38;;;3.25;;
37785;SDS011;23625;48.784;9.336;2023-07-22T02:31:51;6.20;;;3.15;;
37785;SDS011;23625;48.784;9.336;2023-07-22T02:34:16;7.43;;;3.20;;
37785;SDS011;23625;48.784;9.336;2023-07-22T02:36:42;6.20;;;2.85;;
37785;SDS011;23625;48.784;9.336;2023-07-22T02:39:08;5.88;;;3.17;;
37785;SDS011;23625;48.784;9.336;2023-07-22T02:41:36;5.50;;;2.88;;
37785;SDS011;23625;48.784;9.336;2023-07-22T02:44:02;3.80;;;2.78;;
37785;SDS011;23625;48.784;9.336;2023-07-22T02:46:30;7.60;;;2.80;;
37785;SDS011;23625;48.784;9.336;2023-07-22T02:48:56;6.85;;;2.70;;
37785;SDS011;23625;48.784;9.336;2023-07-22T02:51:23;5.65;;;2.95;;
37785;SDS011;23625;48.784;9.336;2023-07-22T02:53:49;5.80;;;3.17;;
37785;SDS011;23625;48.784;9.336;2023-07-22T02:56:15;5.32;;;3.17;;
37785;SDS011;23625;48.784;9.336;2023-07-22T02:58:41;5.43;;;2.95;;
37785;SDS011;23625;48.784;9.336;2023-07-22T03:01:09;4.93;;;3.25;;
37785;SDS011;23625;48.784;9.336;2023-07-22T03:03:35;4.65;;;2.70;;
37785;SDS011;23625;48.784;9.336;2023-07-22T03:06:02;5.18;;;3.50;;
37785;SDS011;23625;48.784;9.336;2023-07-22T03:08:32;6.03;;;2.80;;
37785;SDS011;23625;48.784;9.336;2023-07-22T03:10:57;5.40;;;2.80;;
37785;SDS011;23625;48.784;9.336;2023-07-22T03:13:23;5.47;;;2.80;;
37785;SDS011;23625;48.784;9.336;2023-07-22T03:15:48;4.22;;;2.88;;
37785;SDS011;23625;48.784;9.336;2023-07-22T03:18:14;4.53;;;2.90;;
37785;SDS011;23625;48.784;9.336;2023-07-22T03:20:40;6.68;;;2.85;;
37785;SDS011;23625;48.784;9.336;2023-07-22T03:23:06;5.57;;;2.85;;
37785;SDS011;23625;48.784;9.336;2023-07-22T03:25:32;4.80;;;3.05;;
37785;SDS011;23625;48.784;9.336;2023-07-22T03:28:04;5.38;;;2.65;;
37785;SDS011;23625;48.784;9.336;2023-07-22T03:30:31;6.03;;;2.92;;
37785;SDS011;23625;48.784;9.336;2023-07-22T03:32:57;13.30;;;4.35;;
37785;SDS011;23625;48.784;9.336;2023-07-22T03:35:23;5.40;;;3.08;;
37785;SDS011;23625;48.784;9.336;2023-07-22T03:37:48;6.88;;;2.97;;
37785;SDS011;23625;48.784;9.336;2023-07-22T03:40:14;7.88;;;3.50;;
37785;SDS011;23625;48.784;9.336;2023-07-22T03:42:48;7.85;;;2.85;;
37785;SDS011;23625;48.784;9.336;2023-07-22T03:45:15;6.18;;;3.40;;
37785;SDS011;23625;48.784;9.336;2023-07-22T03:47:46;5.95;;;3.30;;
37785;SDS011;23625;48.784;9.336;2023-07-22T03:50:12;4.47;;;3.38;;
37785;SDS011;23625;48.784;9.336;2023-07-22T03:52:38;7.05;;;3.40;;
37785;SDS011;23625;48.784;9.336;2023-07-22T03:55:04;4.05;;;3.10;;
37785;SDS011;23625;48.784;9.336;2023-07-22T03:57:30;5.88;;;3.13;;
37785;SDS011;23625;48.784;9.336;2023-07-22T03:59:56;6.65;;;3.22;;
37785;SDS011;23625;48.784;9.336;2023-07-22T04:02:22;6.93;;;3.17;;
37785;SDS011;23625;48.784;9.336;2023-07-22T04:04:49;6.40;;;3.25;;
37785;SDS011;23625;48.784;9.336;2023-07-22T04:07:16;6.50;;;3.20;;
37785;SDS011;23625;48.784;9.336;2023-07-22T04:09:42;5.70;;;3.47;;
37785;SDS011;23625;48.784;9.336;2023-07-22T04:12:08;7.07;;;3.22;;
37785;SDS011;23625;48.784;9.336;2023-07-22T04:14:33;5.47;;;3.03;;
37785;SDS011;23625;48.784;9.336;2023-07-22T04:16:59;9.07;;;3.30;;
37785;SDS011;23625;48.784;9.336;2023-07-22T04:19:24;10.40;;;3.03;;
37785;SDS011;23625;48.784;9.336;2023-07-22T04:21:50;5.80;;;3.33;;
37785;SDS011;23625;48.784;9.336;2023-07-22T04:24:16;3.80;;;2.92;;
37785;SDS011;23625;48.784;9.336;2023-07-22T04:26:42;6.00;;;3.08;;
37785;SDS011;23625;48.784;9.336;2023-07-22T04:29:08;8.85;;;3.13;;
37785;SDS011;23625;48.784;9.336;2023-07-22T04:31:34;5.13;;;3.15;;
37785;SDS011;23625;48.784;9.336;2023-07-22T04:34:00;6.15;;;3.00;;
37785;SDS011;23625;48.784;9.336;2023-07-22T04:36:25;6.45;;;2.53;;
37785;SDS011;23625;48.784;9.336;2023-07-22T04:38:51;6.47;;;3.00;;
37785;SDS011;23625;48.784;9.336;2023-07-22T04:41:16;6.78;;;3.25;;
37785;SDS011;23625;48.784;9.336;2023-07-22T04:43:42;6.88;;;2.88;;
37785;SDS011;23625;48.784;9.336;2023-07-22T04:46:08;5.75;;;3.22;;
37785;SDS011;23625;48.784;9.336;2023-07-22T04:48:33;7.57;;;2.92;;
37785;SDS011;23625;48.784;9.336;2023-07-22T04:50:59;5.85;;;3.13;;
37785;SDS011;23625;48.784;9.336;2023-07-22T04:53:25;7.03;;;3.08;;
37785;SDS011;23625;48.784;9.336;2023-07-22T04:55:51;4.95;;;3.08;;
37785;SDS011;23625;48.784;9.336;2023-07-22T04:58:16;8.40;;;2.95;;
37785;SDS011;23625;48.784;9.336;2023-07-22T05:00:42;5.43;;;2.80;;
37785;SDS011;23625;48.784;9.336;2023-07-22T05:03:08;5.60;;;3.15;;
37785;SDS011;23625;48.784;9.336;2023-07-22T05:05:34;5.55;;;2.75;;
37785;SDS011;23625;48.784;9.336;2023-07-22T05:08:00;7.78;;;3.42;;
37785;SDS011;23625;48.784;9.336;2023-07-22T05:10:26;5.18;;;2.95;;
37785;SDS011;23625;48.784;9.336;2023-07-22T05:12:54;6.45;;;3.17;;
37785;SDS011;23625;48.784;9.336;2023-07-22T05:15:19;6.20;;;3.08;;
37785;SDS011;23625;48.784;9.336;2023-07-22T05:17:45;4.15;;;3.42;;
37785;SDS011;23625;48.784;9.336;2023-07-22T05:20:11;9.15;;;3.15;;
37785;SDS011;23625;48.784;9.336;2023-07-22T05:22:38;4.78;;;3.17;;
37785;SDS011;23625;48.784;9.336;2023-07-22T05:25:05;7.40;;;3.33;;
37785;SDS011;23625;48.784;9.336;2023-07-22T05:27:31;6.25;;;2.80;;
37785;SDS011;23625;48.784;9.336;2023-07-22T05:29:57;9.25;;;2.70;;
37785;SDS011;23625;48.784;9.336;2023-07-22T05:32:22;5.82;;;2.80;;
37785;SDS011;23625;48.784;9.336;2023-07-22T05:34:48;4.30;;;2.90;;
37785;SDS011;23625;48.784;9.336;2023-07-22T05:37:14;5.70;;;2.42;;
37785;SDS011;23625;48.784;9.336;2023-07-22T05:39:39;4.47;;;3.05;;
37785;SDS011;23625;48.784;9.336;2023-07-22T05:42:05;6.53;;;3.38;;
37785;SDS011;23625;48.784;9.336;2023-07-22T05:44:31;7.28;;;2.88;;
37785;SDS011;23625;48.784;9.336;2023-07-22T05:46:57;4.45;;;2.53;;
37785;SDS011;23625;48.784;9.336;2023-07-22T05:49:22;5.72;;;3.08;;
37785;SDS011;23625;48.784;9.336;2023-07-22T05:51:48;7.80;;;3.30;;
37785;SDS011;23625;48.784;9.336;2023-07-22T05:54:13;7.60;;;2.95;;
37785;SDS011;23625;48.784;9.336;2023-07-22T05:56:42;11.75;;;4.45;;
37785;SDS011;23625;48.784;9.336;2023-07-22T05:59:08;5.47;;;2.67;;
37785;SDS011;23625;48.784;9.336;2023-07-22T06:01:33;4.65;;;2.67;;
37785;SDS011;23625;48.784;9.336;2023-07-22T06:03:59;6.28;;;3.40;;
37785;SDS011;23625;48.784;9.336;2023-07-22T06:06:25;5.40;;;2.67;;
37785;SDS011;23625;48.784;9.336;2023-07-22T06:08:50;8.32;;;2.58;;
37785;SDS011;23625;48.784;9.336;2023-07-22T06:11:16;3.90;;;2.42;;
37785;SDS011;23625;48.784;9.336;2023-07-22T06:13:42;5.60;;;2.38;;
37785;SDS011;23625;48.784;9.336;2023-07-22T06:16:08;5.32;;;2.45;;
37785;SDS011;23625;48.784;9.336;2023-07-22T06:18:33;4.05;;;2.55;;
37785;SDS011;23625;48.784;9.336;2023-07-22T06:20:59;5.10;;;2.83;;
37785;SDS011;23625;48.784;9.336;2023-07-22T06:23:24;5.22;;;2.40;;
37785;SDS011;23625;48.784;9.336;2023-07-22T06:25:50;4.32;;;2.75;;
37785;SDS011;23625;48.784;9.336;2023-07-22T06:28:17;7.25;;;2.60;;
37785;SDS011;23625;48.784;9.336;2023-07-22T06:30:42;5.25;;;2.70;;
37785;SDS011;23625;48.784;9.336;2023-07-22T06:33:08;6.90;;;2.95;;
37785;SDS011;23625;48.784;9.336;2023-07-22T06:35:34;3.45;;;2.33;;
37785;SDS011;23625;48.784;9.336;2023-07-22T06:37:59;3.85;;;2.28;;
37785;SDS011;23625;48.784;9.336;2023-07-22T06:40:25;5.03;;;2.63;;
37785;SDS011;23625;48.784;9.336;2023-07-22T06:42:51;11.15;;;2.90;;
37785;SDS011;23625;48.784;9.336;2023-07-22T06:45:16;3.70;;;2.10;;
37785;SDS011;23625;48.784;9.336;2023-07-22T06:47:42;7.40;;;2.55;;
37785;SDS011;23625;48.784;9.336;2023-07-22T06:50:09;8.38;;;4.43;;
37785;SDS011;23625;48.784;9.336;2023-07-22T06:52:34;23.42;;;11.82;;
37785;SDS011;23625;48.784;9.336;2023-07-22T06:55:00;5.63;;;2.60;;
37785;SDS011;23625;48.784;9.336;2023-07-22T06:57:25;4.78;;;2.67;;
37785;SDS011;23625;48.784;9.336;2023-07-22T06:59:54;8.18;;;2.60;;
37785;SDS011;23625;48.784;9.336;2023-07-22T07:02:20;4.05;;;2.42;;
37785;SDS011;23625;48.784;9.336;2023-07-22T07:04:46;5.60;;;2.42;;
37785;SDS011;23625;48.784;9.336;2023-07-22T07:07:12;5.72;;;2.65;;
37785;SDS011;23625;48.784;9.336;2023-07-22T07:09:38;6.65;;;2.80;;
37785;SDS011;23625;48.784;9.336;2023-07-22T07:12:04;6.32;;;2.92;;
37785;SDS011;23625;48.784;9.336;2023-07-22T07:14:30;4.65;;;2.60;;
37785;SDS011;23625;48.784;9.336;2023-07-22T07:16:55;6.70;;;2.72;;
37785;SDS011;23625;48.784;9.336;2023-07-22T07:19:21;4.85;;;2.47;;
37785;SDS011;23625;48.784;9.336;2023-07-22T07:21:47;8.20;;;2.58;;
37785;SDS011;23625;48.784;9.336;2023-07-22T07:24:12;6.03;;;2.42;;
37785;SDS011;23625;48.784;9.336;2023-07-22T07:26:38;5.13;;;2.35;;
37785;SDS011;23625;48.784;9.336;2023-07-22T07:29:04;6.20;;;2.47;;
37785;SDS011;23625;48.784;9.336;2023-07-22T07:31:29;5.68;;;2.47;;
37785;SDS011;23625;48.784;9.336;2023-07-22T07:33:55;4.88;;;2.38;;
37785;SDS011;23625;48.784;9.336;2023-07-22T07:36:20;10.45;;;2.17;;
37785;SDS011;23625;48.784;9.336;2023-07-22T07:38:46;5.78;;;3.67;;
37785;SDS011;23625;48.784;9.336;2023-07-22T07:41:12;6.10;;;2.83;;
37785;SDS011;23625;48.784;9.336;2023-07-22T07:43:39;6.75;;;2.50;;
37785;SDS011;23625;48.784;9.336;2023-07-22T07:46:15;4.70;;;2.60;;
37785;SDS011;23625;48.784;9.336;2023-07-22T07:49:07;5.72;;;2.00;;
37785;SDS011;23625;48.784;9.336;2023-07-22T07:51:33;3.65;;;2.58;;
37785;SDS011;23625;48.784;9.336;2023-07-22T07:53:59;5.80;;;2.25;;
37785;SDS011;23625;48.784;9.336;2023-07-22T07:56:25;4.43;;;2.50;;
37785;SDS011;23625;48.784;9.336;2023-07-22T07:58:51;6.03;;;2.63;;
37785;SDS011;23625;48.784;9.336;2023-07-22T08:01:18;5.35;;;2.53;;
37785;SDS011;23625;48.784;9.336;2023-07-22T08:03:44;3.75;;;2.30;;
37785;SDS011;23625;48.784;9.336;2023-07-22T08:06:10;5.63;;;2.15;;
37785;SDS011;23625;48.784;9.336;2023-07-22T08:08:36;5.72;;;2.20;;
37785;SDS011;23625;48.784;9.336;2023-07-22T08:11:03;4.88;;;2.60;;
37785;SDS011;23625;48.784;9.336;2023-07-22T08:13:35;4.80;;;2.78;;
37785;SDS011;23625;48.784;9.336;2023-07-22T08:16:02;3.05;;;2.03;;
37785;SDS011;23625;48.784;9.336;2023-07-22T08:18:31;6.32;;;2.03;;
37785;SDS011;23625;48.784;9.336;2023-07-22T08:20:58;5.97;;;2.17;;
37785;SDS011;23625;48.784;9.336;2023-07-22T08:23:23;4.28;;;2.03;;
37785;SDS011;23625;48.784;9.336;2023-07-22T08:25:49;4.78;;;2.40;;
37785;SDS011;23625;48.784;9.336;2023-07-22T08:28:15;4.05;;;1.88;;
37785;SDS011;23625;48.784;9.336;2023-07-22T08:30:41;3.65;;;2.10;;
37785;SDS011;23625;48.784;9.336;2023-07-22T08:33:08;3.58;;;2.20;;
37785;SDS011;23625;48.784;9.336;2023-07-22T08:35:35;3.25;;;1.90;;
37785;SDS011;23625;48.784;9.336;2023-07-22T08:38:01;4.88;;;2.13;;
37785;SDS011;23625;48.784;9.336;2023-07-22T08:40:33;3.83;;;1.67;;
37785;SDS011;23625;48.784;9.336;2023-07-22T08:43:05;5.45;;;2.28;;
37785;SDS011;23625;48.784;9.336;2023-07-22T08:45:33;3.97;;;1.98;;
37785;SDS011;23625;48.784;9.336;2023-07-22T08:48:05;3.92;;;1.83;;
37785;SDS011;23625;48.784;9.336;2023-07-22T08:53:14;6.07;;;2.08;;
37785;SDS011;23625;48.784;9.336;2023-07-22T08:55:40;6.28;;;2.10;;
37785;SDS011;23625;48.784;9.336;2023-07-22T08:58:10;3.35;;;1.88;;
37785;SDS011;23625;48.784;9.336;2023-07-22T09:00:36;1.67;;;1.35;;
37785;SDS011;23625;48.784;9.336;2023-07-22T09:03:03;4.50;;;1.30;;
37785;SDS011;23625;48.784;9.336;2023-07-22T09:05:30;2.92;;;1.85;;
37785;SDS011;23625;48.784;9.336;2023-07-22T09:07:57;3.38;;;1.27;;
37785;SDS011;23625;48.784;9.336;2023-07-22T09:10:24;3.38;;;1.40;;
37785;SDS011;23625;48.784;9.336;2023-07-22T09:12:52;3.45;;;1.95;;
37785;SDS011;23625;48.784;9.336;2023-07-22T09:15:18;4.57;;;1.60;;
37785;SDS011;23625;48.784;9.336;2023-07-22T09:17:45;3.45;;;1.73;;
37785;SDS011;23625;48.784;9.336;2023-07-22T09:20:12;2.78;;;1.85;;
37785;SDS011;23625;48.784;9.336;2023-07-22T09:22:48;4.32;;;1.63;;
37785;SDS011;23625;48.784;9.336;2023-07-22T09:25:19;4.57;;;1.55;;
37785;SDS011;23625;48.784;9.336;2023-07-22T09:27:46;3.78;;;1.60;;
37785;SDS011;23625;48.784;9.336;2023-07-22T09:30:29;2.22;;;1.52;;
37785;SDS011;23625;48.784;9.336;2023-07-22T09:33:00;4.43;;;1.77;;
37785;SDS011;23625;48.784;9.336;2023-07-22T09:35:46;2.63;;;1.80;;
37785;SDS011;23625;48.784;9.336;2023-07-22T09:38:13;4.57;;;1.80;;
37785;SDS011;23625;48.784;9.336;2023-07-22T09:40:40;5.43;;;1.65;;
37785;SDS011;23625;48.784;9.336;2023-07-22T09:43:08;4.50;;;1.90;;
37785;SDS011;23625;48.784;9.336;2023-07-22T09:45:35;2.78;;;2.10;;
37785;SDS011;23625;48.784;9.336;2023-07-22T09:48:02;3.17;;;1.70;;
37785;SDS011;23625;48.784;9.336;2023-07-22T09:50:29;5.00;;;1.88;;
37785;SDS011;23625;48.784;9.336;2023-07-22T09:52:55;2.35;;;1.63;;
37785;SDS011;23625;48.784;9.336;2023-07-22T09:55:28;4.00;;;1.60;;
37785;SDS011;23625;48.784;9.336;2023-07-22T09:57:59;6.45;;;1.80;;
37785;SDS011;23625;48.784;9.336;2023-07-22T10:00:29;3.80;;;2.00;;
37785;SDS011;23625;48.784;9.336;2023-07-22T10:02:56;3.20;;;1.50;;
37785;SDS011;23625;48.784;9.336;2023-07-22T10:05:24;4.57;;;1.50;;
37785;SDS011;23625;48.784;9.336;2023-07-22T10:07:52;1.92;;;1.60;;
37785;SDS011;23625;48.784;9.336;2023-07-22T10:10:19;4.75;;;2.38;;
37785;SDS011;23625;48.784;9.336;2023-07-22T10:12:50;2.42;;;1.70;;
37785;SDS011;23625;48.784;9.336;2023-07-22T10:15:18;2.83;;;1.88;;
37785;SDS011;23625;48.784;9.336;2023-07-22T10:17:44;1.90;;;1.40;;
37785;SDS011;23625;48.784;9.336;2023-07-22T10:20:12;2.30;;;1.35;;
37785;SDS011;23625;48.784;9.336;2023-07-22T10:22:44;4.40;;;1.58;;
37785;SDS011;23625;48.784;9.336;2023-07-22T10:25:12;3.10;;;2.17;;
37785;SDS011;23625;48.784;9.336;2023-07-22T10:27:45;4.20;;;1.60;;
37785;SDS011;23625;48.784;9.336;2023-07-22T10:30:12;2.47;;;1.60;;
37785;SDS011;23625;48.784;9.336;2023-07-22T10:32:43;4.57;;;1.58;;
37785;SDS011;23625;48.784;9.336;2023-07-22T10:35:09;5.60;;;2.17;;
37785;SDS011;23625;48.784;9.336;2023-07-22T10:37:37;2.50;;;1.40;;
37785;SDS011;23625;48.784;9.336;2023-07-22T10:40:19;2.38;;;1.52;;
37785;SDS011;23625;48.784;9.336;2023-07-22T10:48:03;1.88;;;1.38;;
37785;SDS011;23625;48.784;9.336;2023-07-22T10:50:43;2.53;;;1.40;;
37785;SDS011;23625;48.784;9.336;2023-07-22T10:56:03;1.50;;;1.30;;
37785;SDS011;23625;48.784;9.336;2023-07-22T11:04:10;3.90;;;1.30;;
37785;SDS011;23625;48.784;9.336;2023-07-22T11:14:28;2.97;;;1.50;;
37785;SDS011;23625;48.784;9.336;2023-07-22T11:16:56;2.70;;;1.52;;
37785;SDS011;23625;48.784;9.336;2023-07-22T11:19:23;1.73;;;1.13;;
37785;SDS011;23625;48.784;9.336;2023-07-22T11:21:50;2.35;;;1.60;;
37785;SDS011;23625;48.784;9.336;2023-07-22T11:24:17;3.13;;;1.60;;
37785;SDS011;23625;48.784;9.336;2023-07-22T11:26:47;2.95;;;1.65;;
37785;SDS011;23625;48.784;9.336;2023-07-22T11:29:14;3.10;;;1.65;;
37785;SDS011;23625;48.784;9.336;2023-07-22T11:31:41;6.38;;;1.80;;
37785;SDS011;23625;48.784;9.336;2023-07-22T11:34:14;2.60;;;1.63;;
37785;SDS011;23625;48.784;9.336;2023-07-22T11:36:41;3.15;;;1.60;;
37785;SDS011;23625;48.784;9.336;2023-07-22T11:39:08;2.90;;;1.30;;
37785;SDS011;23625;48.784;9.336;2023-07-22T11:41:41;4.28;;;1.42;;
37785;SDS011;23625;48.784;9.336;2023-07-22T11:44:08;1.45;;;1.20;;
37785;SDS011;23625;48.784;9.336;2023-07-22T11:46:59;2.20;;;1.40;;
37785;SDS011;23625;48.784;9.336;2023-07-22T11:49:39;2.83;;;1.40;;
37785;SDS011;23625;48.784;9.336;2023-07-22T11:52:06;4.43;;;1.48;;
37785;SDS011;23625;48.784;9.336;2023-07-22T11:54:43;1.92;;;1.38;;
37785;SDS011;23625;48.784;9.336;2023-07-22T11:57:17;2.83;;;1.63;;
37785;SDS011;23625;48.784;9.336;2023-07-22T11:59:48;3.80;;;1.75;;
37785;SDS011;23625;48.784;9.336;2023-07-22T12:02:19;2.78;;;1.50;;
37785;SDS011;23625;48.784;9.336;2023-07-22T12:07:28;6.93;;;1.98;;
37785;SDS011;23625;48.784;9.336;2023-07-22T12:09:56;2.45;;;1.42;;
37785;SDS011;23625;48.784;9.336;2023-07-22T12:12:33;2.97;;;1.58;;
37785;SDS011;23625;48.784;9.336;2023-07-22T12:15:03;2.00;;;1.38;;
37785;SDS011;23625;48.784;9.336;2023-07-22T12:20:14;5.53;;;2.30;;
37785;SDS011;23625;48.784;9.336;2023-07-22T12:22:41;3.55;;;1.33;;
37785;SDS011;23625;48.784;9.336;2023-07-22T12:25:07;5.43;;;1.65;;
37785;SDS011;23625;48.784;9.336;2023-07-22T12:27:32;3.15;;;1.77;;
37785;SDS011;23625;48.784;9.336;2023-07-22T12:29:58;2.65;;;1.70;;
37785;SDS011;23625;48.784;9.336;2023-07-22T12:32:24;2.35;;;1.55;;
37785;SDS011;23625;48.784;9.336;2023-07-22T12:34:49;2.78;;;1.67;;
37785;SDS011;23625;48.784;9.336;2023-07-22T12:37:15;2.22;;;1.70;;
37785;SDS011;23625;48.784;9.336;2023-07-22T12:39:40;2.50;;;1.50;;
37785;SDS011;23625;48.784;9.336;2023-07-22T12:42:06;4.45;;;1.73;;
37785;SDS011;23625;48.784;9.336;2023-07-22T12:44:32;2.17;;;1.67;;
37785;SDS011;23625;48.784;9.336;2023-07-22T12:46:57;4.90;;;1.55;;
37785;SDS011;23625;48.784;9.336;2023-07-22T12:49:23;2.97;;;1.67;;
37785;SDS011;23625;48.784;9.336;2023-07-22T12:51:48;2.50;;;1.48;;
37785;SDS011;23625;48.784;9.336;2023-07-22T12:54:14;3.00;;;1.65;;
37785;SDS011;23625;48.784;9.336;2023-07-22T12:56:40;4.55;;;1.30;;
37785;SDS011;23625;48.784;9.336;2023-07-22T12:59:07;2.75;;;1.63;;
37785;SDS011;23625;48.784;9.336;2023-07-22T13:01:33;2.10;;;1.42;;
37785;SDS011;23625;48.784;9.336;2023-07-22T13:03:59;2.70;;;1.50;;
37785;SDS011;23625;48.784;9.336;2023-07-22T13:06:25;3.45;;;1.50;;
37785;SDS011;23625;48.784;9.336;2023-07-22T13:08:51;3.60;;;1.63;;
37785;SDS011;23625;48.784;9.336;2023-07-22T13:11:17;2.80;;;1.33;;
37785;SDS011;23625;48.784;9.336;2023-07-22T13:13:42;2.13;;;1.45;;
37785;SDS011;23625;48.784;9.336;2023-07-22T13:16:08;6.10;;;1.42;;
37785;SDS011;23625;48.784;9.336;2023-07-22T13:18:33;1.83;;;1.58;;
37785;SDS011;23625;48.784;9.336;2023-07-22T13:20:59;6.45;;;2.05;;
37785;SDS011;23625;48.784;9.336;2023-07-22T13:23:24;3.10;;;1.63;;
37785;SDS011;23625;48.784;9.336;2023-07-22T13:25:50;4.10;;;1.60;;
37785;SDS011;23625;48.784;9.336;2023-07-22T13:28:15;3.55;;;1.95;;
37785;SDS011;23625;48.784;9.336;2023-07-22T13:30:41;2.88;;;1.77;;
37785;SDS011;23625;48.784;9.336;2023-07-22T13:33:07;3.47;;;2.30;;
37785;SDS011;23625;48.784;9.336;2023-07-22T13:35:32;5.07;;;1.85;;
37785;SDS011;23625;48.784;9.336;2023-07-22T13:37:58;4.03;;;2.17;;
37785;SDS011;23625;48.784;9.336;2023-07-22T13:40:23;2.75;;;1.77;;
37785;SDS011;23625;48.784;9.336;2023-07-22T13:42:49;2.83;;;1.73;;
37785;SDS011;23625;48.784;9.336;2023-07-22T13:45:14;3.08;;;1.77;;
37785;SDS011;23625;48.784;9.336;2023-07-22T13:47:40;3.33;;;1.80;;
37785;SDS011;23625;48.784;9.336;2023-07-22T13:50:05;2.33;;;1.77;;
37785;SDS011;23625;48.784;9.336;2023-07-22T13:52:31;4.10;;;2.60;;
37785;SDS011;23625;48.784;9.336;2023-07-22T13:54:57;5.15;;;2.15;;
37785;SDS011;23625;48.784;9.336;2023-07-22T13:57:22;6.75;;;2.05;;
37785;SDS011;23625;48.784;9.336;2023-07-22T13:59:48;5.80;;;2.17;;
37785;SDS011;23625;48.784;9.336;2023-07-22T14:02:14;4.07;;;2.50;;
37785;SDS011;23625;48.784;9.336;2023-07-22T14:04:39;4.95;;;2.05;;
37785;SDS011;23625;48.784;9.336;2023-07-22T14:07:05;5.47;;;2.17;;
37785;SDS011;23625;48.784;9.336;2023-07-22T14:09:31;4.65;;;2.60;;
37785;SDS011;23625;48.784;9.336;2023-07-22T14:11:56;4.30;;;2.50;;
37785;SDS011;23625;48.784;9.336;2023-07-22T14:14:22;3.40;;;1.88;;
37785;SDS011;23625;48.784;9.336;2023-07-22T14:16:53;3.15;;;2.10;;
37785;SDS011;23625;48.784;9.336;2023-07-22T14:19:20;4.47;;;2.30;;
37785;SDS011;23625;48.784;9.336;2023-07-22T14:21:46;2.72;;;2.25;;
37785;SDS011;23625;48.784;9.336;2023-07-22T14:24:11;3.35;;;2.08;;
37785;SDS011;23625;48.784;9.336;2023-07-22T14:26:37;2.88;;;2.28;;
37785;SDS011;23625;48.784;9.336;2023-07-22T14:29:02;4.13;;;2.03;;
37785;SDS011;23625;48.784;9.336;2023-07-22T14:31:28;4.53;;;2.63;;
37785;SDS011;23625;48.784;9.336;2023-07-22T14:33:53;2.60;;;2.03;;
37785;SDS011;23625;48.784;9.336;2023-07-22T14:36:19;4.95;;;2.40;;
37785;SDS011;23625;48.784;9.336;2023-07-22T14:38:45;5.75;;;2.45;;
37785;SDS011;23625;48.784;9.336;2023-07-22T14:41:11;3.33;;;2.25;;
37785;SDS011;23625;48.784;9.336;2023-07-22T14:43:37;5.90;;;2.10;;
37785;SDS011;23625;48.784;9.336;2023-07-22T14:46:03;7.30;;;2.10;;
37785;SDS011;23625;48.784;9.336;2023-07-22T14:48:29;4.22;;;2.13;;
37785;SDS011;23625;48.784;9.336;2023-07-22T14:50:54;2.83;;;1.95;;
37785;SDS011;23625;48.784;9.336;2023-07-22T14:53:20;4.57;;;2.40;;
37785;SDS011;23625;48.784;9.336;2023-07-22T14:55:46;5.07;;;2.88;;
37785;SDS011;23625;48.784;9.336;2023-07-22T14:58:11;4.53;;;2.20;;
37785;SDS011;23625;48.784;9.336;2023-07-22T15:00:37;5.07;;;2.47;;
37785;SDS011;23625;48.784;9.336;2023-07-22T15:03:03;6.00;;;2.35;;
37785;SDS011;23625;48.784;9.336;2023-07-22T15:05:28;4.13;;;2.10;;
37785;SDS011;23625;48.784;9.336;2023-07-22T15:07:54;4.63;;;2.30;;
37785;SDS011;23625;48.784;9.336;2023-07-22T15:10:20;5.07;;;2.67;;
37785;SDS011;23625;48.784;9.336;2023-07-22T15:12:46;4.80;;;2.70;;
37785;SDS011;23625;48.784;9.336;2023-07-22T15:15:12;4.30;;;2.90;;